createdAt,value
2022-09-25T00:00:54.990Z,96774.69
2022-09-25T00:06:06.522Z,96777.50
2022-09-25T00:11:11.925Z,96773.78
2022-09-25T00:16:19.694Z,96763.63
2022-09-25T00:21:21.736Z,96764.91
2022-09-25T00:26:26.083Z,96779.00
2022-09-25T00:31:29.388Z,96767.53
2022-09-25T00:36:31.915Z,96768.38
2022-09-25T00:41:33.591Z,96766.81
2022-09-25T00:46:40.443Z,96766.88
2022-09-25T00:52:03.143Z,96766.88
2022-09-25T00:57:10.800Z,96763.06
2022-09-25T01:02:19.982Z,96763.56
2022-09-25T01:07:21.791Z,96756.28
2022-09-25T01:12:23.487Z,96750.50
2022-09-25T01:17:38.409Z,96753.63
2022-09-25T01:22:55.158Z,96751.38
2022-09-25T01:28:29.434Z,96748.00
2022-09-25T01:33:37.038Z,96763.16
2022-09-25T01:38:55.126Z,96754.91
2022-09-25T01:43:58.714Z,96752.97
2022-09-25T01:49:08.693Z,96746.47
2022-09-25T01:54:17.727Z,96742.44
2022-09-25T01:59:33.102Z,96733.63
2022-09-25T02:04:39.230Z,96734.09
2022-09-25T02:09:45.934Z,96731.94
2022-09-25T02:14:59.151Z,96741.81
2022-09-25T02:20:19.820Z,96736.84
2022-09-25T02:25:37.612Z,96740.31
2022-09-25T02:30:39.474Z,96739.47
2022-09-25T02:35:42.326Z,96743.81
2022-09-25T02:40:56.103Z,96747.00
2022-09-25T02:46:24.056Z,96741.69
2022-09-25T02:52:03.462Z,96738.06
2022-09-25T02:57:26.640Z,96747.69
2022-09-25T03:02:31.622Z,96747.03
2022-09-25T03:07:53.783Z,96741.34
2022-09-25T03:12:55.413Z,96736.91
2022-09-25T03:17:58.080Z,96728.50
2022-09-25T03:22:59.687Z,96725.16
2022-09-25T03:28:01.546Z,96720.69
2022-09-25T03:33:03.228Z,96723.41
2022-09-25T03:38:05.323Z,96731.69
2022-09-25T03:48:07.897Z,96725.47
2022-09-25T03:53:09.655Z,96721.88
2022-09-25T03:58:11.322Z,96711.47
2022-09-25T04:03:16.165Z,96707.34
2022-09-25T04:08:17.815Z,96710.59
2022-09-25T04:13:19.795Z,96710.09
2022-09-25T04:18:21.482Z,96703.91
2022-09-25T04:23:23.148Z,96694.50
2022-09-25T04:28:25.860Z,96689.53
2022-09-25T04:33:46.270Z,96688.56
2022-09-25T04:38:48.615Z,96678.75
2022-09-25T04:43:50.255Z,96683.41
2022-09-25T04:48:51.920Z,96685.81
2022-09-25T04:53:53.878Z,96692.28
2022-09-25T04:58:55.929Z,96711.72
2022-09-25T05:03:57.703Z,96708.94
2022-09-25T05:08:59.397Z,96708.97
2022-09-25T05:14:01.307Z,96703.50
2022-09-25T05:19:02.996Z,96712.25
2022-09-25T05:24:05.263Z,96717.53
2022-09-25T05:29:07.016Z,96723.00
2022-09-25T05:34:09.713Z,96731.34
2022-09-25T05:39:14.424Z,96725.91
2022-09-25T05:44:16.596Z,96726.66
2022-09-25T05:49:18.223Z,96722.44
2022-09-25T05:54:19.861Z,96718.59
2022-09-25T05:59:21.545Z,96726.88
2022-09-25T06:04:23.263Z,96722.22
2022-09-25T06:09:24.892Z,96716.34
2022-09-25T06:14:26.507Z,96704.84
2022-09-25T06:19:30.991Z,96707.81
2022-09-25T06:24:32.658Z,96707.44
2022-09-25T06:29:34.381Z,96710.63
2022-09-25T06:34:36.044Z,96706.69
2022-09-25T06:39:37.993Z,96704.53
2022-09-25T06:44:39.909Z,96709.69
2022-09-25T06:49:41.578Z,96712.56
2022-09-25T06:54:44.354Z,96717.72
2022-09-25T06:59:46.331Z,96725.06
2022-09-25T07:04:51.227Z,96727.72
2022-09-25T07:09:53.090Z,96730.78
2022-09-25T07:14:55.243Z,96730.34
2022-09-25T07:19:56.924Z,96732.78
2022-09-25T07:24:58.604Z,96737.75
2022-09-25T07:30:00.872Z,96738.28
2022-09-25T07:35:03.253Z,96734.13
2022-09-25T07:40:05.434Z,96735.69
2022-09-25T07:45:08.125Z,96733.69
2022-09-25T07:50:15.264Z,96729.75
2022-09-25T07:55:18.255Z,96729.06
2022-09-25T08:00:19.960Z,96738.00
2022-09-25T08:05:21.770Z,96746.03
2022-09-25T08:10:23.640Z,96746.84
2022-09-25T08:15:25.798Z,96745.28
2022-09-25T08:20:27.472Z,96740.88
2022-09-25T08:25:29.198Z,96738.97
2022-09-25T08:30:31.098Z,96731.59
2022-09-25T08:35:32.785Z,96737.91
2022-09-25T08:40:41.794Z,96735.81
2022-09-25T08:46:05.505Z,96733.66
2022-09-25T08:51:09.108Z,96734.47
2022-09-25T08:56:19.590Z,96728.56
2022-09-25T09:01:28.425Z,96726.94
2022-09-25T09:06:32.940Z,96728.06
2022-09-25T09:11:44.045Z,96721.44
2022-09-25T09:16:59.763Z,96723.66
2022-09-25T09:22:09.422Z,96721.81
2022-09-25T09:27:38.878Z,96718.78
2022-09-25T09:33:01.697Z,96711.22
2022-09-25T09:38:31.930Z,96720.78
2022-09-25T09:44:15.417Z,96715.53
2022-09-25T09:49:34.177Z,96716.47
2022-09-25T09:55:02.379Z,96720.66
2022-09-25T10:00:08.193Z,96705.00
2022-09-25T10:05:46.783Z,96706.06
2022-09-25T10:10:54.891Z,96706.50
2022-09-25T10:16:00.415Z,96697.13
2022-09-25T10:21:14.942Z,96690.50
2022-09-25T10:26:37.864Z,96689.56
2022-09-25T10:31:40.931Z,96697.44
2022-09-25T10:36:46.121Z,96697.13
2022-09-25T10:41:47.891Z,96696.75
2022-09-25T10:47:08.012Z,96695.66
2022-09-25T10:52:13.995Z,96705.25
2022-09-25T10:57:34.202Z,96699.28
2022-09-25T11:02:41.352Z,96706.44
2022-09-25T11:07:54.954Z,96714.41
2022-09-25T11:12:58.226Z,96711.56
2022-09-25T11:18:00.128Z,96723.03
2022-09-25T11:23:34.086Z,96716.72
2022-09-25T11:28:57.596Z,96713.88
2022-09-25T11:34:34.178Z,96712.84
2022-09-25T11:40:00.799Z,96710.22
2022-09-25T11:45:13.227Z,96699.81
2022-09-25T11:50:16.964Z,96690.72
2022-09-25T11:55:50.021Z,96679.09
2022-09-25T12:01:08.191Z,96679.16
2022-09-25T12:06:28.478Z,96662.50
2022-09-25T12:11:41.380Z,96662.78
2022-09-25T12:16:52.371Z,96652.91
2022-09-25T12:22:14.699Z,96643.25
2022-09-25T12:27:48.385Z,96640.78
2022-09-25T12:33:02.488Z,96640.16
2022-09-25T12:38:14.403Z,96632.34
2022-09-25T12:43:43.064Z,96634.22
2022-09-25T12:48:52.095Z,96621.28
2022-09-25T12:54:07.026Z,96631.38
2022-09-25T12:59:27.337Z,96624.09
2022-09-25T13:04:43.234Z,96629.38
2022-09-25T13:09:47.414Z,96628.09
2022-09-25T13:14:55.835Z,96622.19
2022-09-25T13:20:28.680Z,96616.69
2022-09-25T13:25:41.655Z,96622.88
2022-09-25T13:30:57.762Z,96614.19
2022-09-25T13:36:16.189Z,96611.69
2022-09-25T13:41:17.860Z,96617.22
2022-09-25T13:46:26.090Z,96605.56
2022-09-25T13:51:35.936Z,96601.59
2022-09-25T13:56:40.594Z,96601.47
2022-09-25T14:01:44.397Z,96597.31
2022-09-25T14:06:48.859Z,96596.34
2022-09-25T14:11:59.663Z,96594.88
2022-09-25T14:17:03.342Z,96603.50
2022-09-25T14:22:06.558Z,96587.56
2022-09-25T14:27:21.687Z,96581.03
2022-09-25T14:32:54.534Z,96571.09
2022-09-25T14:38:35.794Z,96568.16
2022-09-25T14:44:16.499Z,96566.53
2022-09-25T14:49:26.642Z,96565.06
2022-09-25T14:54:31.920Z,96569.28
2022-09-25T14:59:47.484Z,96565.66
2022-09-25T15:04:50.719Z,96564.41
2022-09-25T15:09:55.291Z,96561.16
2022-09-25T15:15:00.477Z,96551.72
2022-09-25T15:20:07.908Z,96553.34
2022-09-25T15:25:22.708Z,96555.78
2022-09-25T15:30:27.225Z,96558.84
2022-09-25T15:35:30.574Z,96546.31
2022-09-25T15:40:32.494Z,96554.75
2022-09-25T15:45:38.017Z,96551.47
2022-09-25T15:50:44.111Z,96549.34
2022-09-25T15:55:46.380Z,96550.00
2022-09-25T16:01:17.526Z,96544.84
2022-09-25T16:06:19.322Z,96543.19
2022-09-25T16:11:23.748Z,96547.56
2022-09-25T16:16:30.669Z,96551.91
2022-09-25T16:21:38.624Z,96549.28
2022-09-25T16:26:42.826Z,96542.28
2022-09-25T16:31:45.616Z,96549.94
2022-09-25T16:36:48.541Z,96557.53
2022-09-25T16:41:51.110Z,96550.19
2022-09-25T16:46:52.782Z,96562.19
2022-09-25T16:51:55.775Z,96552.31
2022-09-25T16:56:59.284Z,96562.66
2022-09-25T17:02:04.949Z,96560.66
2022-09-25T17:07:08.351Z,96563.06
2022-09-25T17:12:20.015Z,96551.88
2022-09-25T17:17:22.202Z,96546.19
2022-09-25T17:22:29.440Z,96559.38
2022-09-25T17:27:31.243Z,96550.44
2022-09-25T17:32:33.005Z,96569.53
2022-09-25T17:37:34.691Z,96568.81
2022-09-25T17:42:36.365Z,96570.03
2022-09-25T17:47:38.236Z,96575.03
2022-09-25T17:52:39.863Z,96576.34
2022-09-25T17:57:41.580Z,96579.84
2022-09-25T18:02:43.710Z,96574.13
2022-09-25T18:07:45.514Z,96585.34
2022-09-25T18:12:47.256Z,96579.72
2022-09-25T18:17:49.293Z,96573.28
2022-09-25T18:22:51.168Z,96585.81
2022-09-25T18:27:52.960Z,96594.38
2022-09-25T18:32:54.619Z,96597.13
2022-09-25T18:37:58.931Z,96601.63
2022-09-25T18:43:01.386Z,96596.63
2022-09-25T18:48:04.283Z,96599.16
2022-09-25T18:53:05.878Z,96599.16
2022-09-25T18:58:07.826Z,96603.44
2022-09-25T19:03:09.586Z,96603.22
2022-09-25T19:08:11.379Z,96610.38
2022-09-25T19:13:13.566Z,96612.72
2022-09-25T19:18:15.367Z,96605.38
2022-09-25T19:23:17.120Z,96612.88
2022-09-25T19:28:19.008Z,96607.16
2022-09-25T19:33:20.673Z,96603.19
2022-09-25T19:38:22.291Z,96616.34
2022-09-25T19:43:24.142Z,96621.63
2022-09-25T19:48:26.013Z,96634.31
2022-09-25T19:53:27.693Z,96625.31
2022-09-25T19:58:30.478Z,96639.09
2022-09-25T20:03:32.158Z,96632.47
2022-09-25T20:08:34.988Z,96624.91
2022-09-25T20:13:36.608Z,96626.22
2022-09-25T20:18:38.350Z,96623.06
2022-09-25T20:23:40.028Z,96628.59
2022-09-25T20:28:42.680Z,96636.44
2022-09-25T20:33:44.512Z,96628.38
2022-09-25T20:38:53.169Z,96645.50
2022-09-25T20:43:56.997Z,96635.09
2022-09-25T20:48:59.713Z,96640.59
2022-09-25T20:54:06.807Z,96645.34
2022-09-25T20:59:09.254Z,96628.13
2022-09-25T21:04:10.988Z,96629.84
2022-09-25T21:09:19.944Z,96631.28
2022-09-25T21:14:25.739Z,96624.44
2022-09-25T21:19:28.371Z,96627.28
2022-09-25T21:24:30.046Z,96620.16
2022-09-25T21:29:32.214Z,96635.00
2022-09-25T21:34:33.907Z,96629.50
2022-09-25T21:39:35.656Z,96629.69
2022-09-25T21:44:38.100Z,96617.56
2022-09-25T21:49:39.831Z,96626.00
2022-09-25T21:54:41.468Z,96631.09
2022-09-25T21:59:43.124Z,96625.16
2022-09-25T22:04:44.885Z,96632.69
2022-09-25T22:09:46.477Z,96636.31
2022-09-25T22:14:48.301Z,96636.41
2022-09-25T22:19:50.025Z,96627.94
2022-09-25T22:24:51.795Z,96630.91
2022-09-25T22:29:53.387Z,96631.44
2022-09-25T22:34:55.028Z,96625.50
2022-09-25T22:39:56.700Z,96625.28
2022-09-25T22:44:58.344Z,96623.84
2022-09-25T22:50:00.337Z,96616.50
2022-09-25T22:55:02.654Z,96616.66
2022-09-25T23:00:09.935Z,96621.44
2022-09-25T23:05:12.666Z,96619.28
2022-09-25T23:10:14.448Z,96612.97
2022-09-25T23:15:16.145Z,96600.34
2022-09-25T23:20:18.490Z,96605.25
2022-09-25T23:25:20.378Z,96601.59
2022-09-25T23:30:22.060Z,96604.84
2022-09-25T23:35:23.650Z,96606.50
2022-09-25T23:40:25.935Z,96591.34
2022-09-25T23:45:28.275Z,96597.47
2022-09-25T23:50:30.096Z,96598.19
2022-09-25T23:55:32.016Z,96582.75
